sensor_id;sensor_type;location;lat;lon;timestamp;P1;durP1;ratioP1;P2;durP2;ratioP2
68319;SDS011;55168;51.120;17.024;2023-07-29T00:00:00;5.9;;;5.3;;
68319;SDS011;55168;51.120;17.024;2023-07-29T00:01:00;5.9;;;5.3;;
68319;SDS011;55168;51.120;17.024;2023-07-29T00:02:00;5.7;;;4.6;;
68319;SDS011;55168;51.120;17.024;2023-07-29T00:03:00;5.7;;;4.6;;
68319;SDS011;55168;51.120;17.024;2023-07-29T00:04:00;5.7;;;4.6;;
68319;SDS011;55168;51.120;17.024;2023-07-29T00:05:00;5.7;;;4.6;;
68319;SDS011;55168;51.120;17.024;2023-07-29T00:06:00;5.7;;;4.6;;
68319;SDS011;55168;51.120;17.024;2023-07-29T00:07:00;5.4;;;4.9;;
68319;SDS011;55168;51.120;17.024;2023-07-29T00:08:00;5.4;;;4.9;;
68319;SDS011;55168;51.120;17.024;2023-07-29T00:09:00;5.4;;;4.9;;
68319;SDS011;55168;51.120;17.024;2023-07-29T00:10:00;5.4;;;4.9;;
68319;SDS011;55168;51.120;17.024;2023-07-29T00:11:00;5.4;;;4.9;;
68319;SDS011;55168;51.120;17.024;2023-07-29T00:12:00;5.9;;;5.0;;
68319;SDS011;55168;51.120;17.024;2023-07-29T00:13:00;5.9;;;5.0;;
68319;SDS011;55168;51.120;17.024;2023-07-29T00:14:01;5.9;;;5.0;;
68319;SDS011;55168;51.120;17.024;2023-07-29T00:15:00;5.9;;;5.0;;
68319;SDS011;55168;51.120;17.024;2023-07-29T00:16:00;5.9;;;5.0;;
68319;SDS011;55168;51.120;17.024;2023-07-29T00:17:00;5.1;;;4.7;;
68319;SDS011;55168;51.120;17.024;2023-07-29T00:18:00;5.1;;;4.7;;
68319;SDS011;55168;51.120;17.024;2023-07-29T00:19:00;5.1;;;4.7;;
68319;SDS011;55168;51.120;17.024;2023-07-29T00:20:00;5.1;;;4.7;;
68319;SDS011;55168;51.120;17.024;2023-07-29T00:21:00;5.1;;;4.7;;
68319;SDS011;55168;51.120;17.024;2023-07-29T00:22:00;6.8;;;5.0;;
68319;SDS011;55168;51.120;17.024;2023-07-29T00:23:00;6.8;;;5.0;;
68319;SDS011;55168;51.120;17.024;2023-07-29T00:24:00;6.8;;;5.0;;
68319;SDS011;55168;51.120;17.024;2023-07-29T00:25:00;6.8;;;5.0;;
68319;SDS011;55168;51.120;17.024;2023-07-29T00:26:00;6.8;;;5.0;;
68319;SDS011;55168;51.120;17.024;2023-07-29T00:27:00;5.2;;;4.7;;
68319;SDS011;55168;51.120;17.024;2023-07-29T00:28:00;5.2;;;4.7;;
68319;SDS011;55168;51.120;17.024;2023-07-29T00:29:00;5.2;;;4.7;;
68319;SDS011;55168;51.120;17.024;2023-07-29T00:30:00;5.2;;;4.7;;
68319;SDS011;55168;51.120;17.024;2023-07-29T00:31:01;5.2;;;4.7;;
68319;SDS011;55168;51.120;17.024;2023-07-29T00:32:00;5.3;;;4.8;;
68319;SDS011;55168;51.120;17.024;2023-07-29T00:33:00;5.3;;;4.8;;
68319;SDS011;55168;51.120;17.024;2023-07-29T00:34:00;5.3;;;4.8;;
68319;SDS011;55168;51.120;17.024;2023-07-29T00:35:00;5.3;;;4.8;;
68319;SDS011;55168;51.120;17.024;2023-07-29T00:36:00;5.3;;;4.8;;
68319;SDS011;55168;51.120;17.024;2023-07-29T00:37:00;5.1;;;4.6;;
68319;SDS011;55168;51.120;17.024;2023-07-29T00:38:00;5.1;;;4.6;;
68319;SDS011;55168;51.120;17.024;2023-07-29T00:39:00;5.1;;;4.6;;
68319;SDS011;55168;51.120;17.024;2023-07-29T00:40:00;5.1;;;4.6;;
68319;SDS011;55168;51.120;17.024;2023-07-29T00:41:02;5.1;;;4.6;;
68319;SDS011;55168;51.120;17.024;2023-07-29T00:42:00;5.4;;;4.9;;
68319;SDS011;55168;51.120;17.024;2023-07-29T00:43:00;5.4;;;4.9;;
68319;SDS011;55168;51.120;17.024;2023-07-29T00:44:00;5.4;;;4.9;;
68319;SDS011;55168;51.120;17.024;2023-07-29T00:45:00;5.4;;;4.9;;
68319;SDS011;55168;51.120;17.024;2023-07-29T00:46:00;5.4;;;4.9;;
68319;SDS011;55168;51.120;17.024;2023-07-29T00:47:02;5.7;;;5.2;;
68319;SDS011;55168;51.120;17.024;2023-07-29T00:48:01;5.7;;;5.2;;
68319;SDS011;55168;51.120;17.024;2023-07-29T00:49:00;5.7;;;5.2;;
68319;SDS011;55168;51.120;17.024;2023-07-29T00:50:00;5.7;;;5.2;;
68319;SDS011;55168;51.120;17.024;2023-07-29T00:51:00;5.7;;;5.2;;
68319;SDS011;55168;51.120;17.024;2023-07-29T00:52:00;5.8;;;5.2;;
68319;SDS011;55168;51.120;17.024;2023-07-29T00:53:00;5.8;;;5.2;;
68319;SDS011;55168;51.120;17.024;2023-07-29T00:54:00;5.8;;;5.2;;
68319;SDS011;55168;51.120;17.024;2023-07-29T00:55:00;5.8;;;5.2;;
68319;SDS011;55168;51.120;17.024;2023-07-29T00:56:00;5.8;;;5.2;;
68319;SDS011;55168;51.120;17.024;2023-07-29T00:57:00;6.2;;;5.6;;
68319;SDS011;55168;51.120;17.024;2023-07-29T00:58:00;6.2;;;5.6;;
68319;SDS011;55168;51.120;17.024;2023-07-29T00:59:01;6.2;;;5.6;;
68319;SDS011;55168;51.120;17.024;2023-07-29T01:00:00;6.2;;;5.6;;
68319;SDS011;55168;51.120;17.024;2023-07-29T01:01:00;6.2;;;5.6;;
68319;SDS011;55168;51.120;17.024;2023-07-29T01:02:00;6.1;;;5.5;;
68319;SDS011;55168;51.120;17.024;2023-07-29T01:03:00;6.1;;;5.5;;
68319;SDS011;55168;51.120;17.024;2023-07-29T01:04:00;6.1;;;5.5;;
68319;SDS011;55168;51.120;17.024;2023-07-29T01:05:01;6.1;;;5.5;;
68319;SDS011;55168;51.120;17.024;2023-07-29T01:06:10;6.1;;;5.5;;
68319;SDS011;55168;51.120;17.024;2023-07-29T01:07:33;6.3;;;5.7;;
68319;SDS011;55168;51.120;17.024;2023-07-29T01:08:33;6.3;;;5.7;;
68319;SDS011;55168;51.120;17.024;2023-07-29T01:09:03;6.3;;;5.7;;
68319;SDS011;55168;51.120;17.024;2023-07-29T01:10:03;6.3;;;5.7;;
68319;SDS011;55168;51.120;17.024;2023-07-29T01:11:11;6.3;;;5.7;;
68319;SDS011;55168;51.120;17.024;2023-07-29T01:12:07;6.0;;;5.4;;
68319;SDS011;55168;51.120;17.024;2023-07-29T01:13:06;6.0;;;5.4;;
68319;SDS011;55168;51.120;17.024;2023-07-29T01:14:05;6.0;;;5.4;;
68319;SDS011;55168;51.120;17.024;2023-07-29T01:15:07;6.0;;;5.4;;
68319;SDS011;55168;51.120;17.024;2023-07-29T01:16:07;6.0;;;5.4;;
68319;SDS011;55168;51.120;17.024;2023-07-29T01:17:03;5.6;;;5.1;;
68319;SDS011;55168;51.120;17.024;2023-07-29T01:18:11;5.6;;;5.1;;
68319;SDS011;55168;51.120;17.024;2023-07-29T01:19:05;5.6;;;5.1;;
68319;SDS011;55168;51.120;17.024;2023-07-29T01:20:02;5.6;;;5.1;;
68319;SDS011;55168;51.120;17.024;2023-07-29T01:21:03;5.6;;;5.1;;
68319;SDS011;55168;51.120;17.024;2023-07-29T01:22:02;6.1;;;5.1;;
68319;SDS011;55168;51.120;17.024;2023-07-29T01:23:00;6.1;;;5.1;;
68319;SDS011;55168;51.120;17.024;2023-07-29T01:24:00;6.1;;;5.1;;
68319;SDS011;55168;51.120;17.024;2023-07-29T01:25:00;6.1;;;5.1;;
68319;SDS011;55168;51.120;17.024;2023-07-29T01:26:00;6.1;;;5.1;;
68319;SDS011;55168;51.120;17.024;2023-07-29T01:27:00;6.0;;;5.3;;
68319;SDS011;55168;51.120;17.024;2023-07-29T01:28:00;6.0;;;5.3;;
68319;SDS011;55168;51.120;17.024;2023-07-29T01:29:00;6.0;;;5.3;;
68319;SDS011;55168;51.120;17.024;2023-07-29T01:30:01;6.0;;;5.3;;
68319;SDS011;55168;51.120;17.024;2023-07-29T01:31:03;6.0;;;5.3;;
68319;SDS011;55168;51.120;17.024;2023-07-29T01:32:05;6.3;;;5.5;;
68319;SDS011;55168;51.120;17.024;2023-07-29T01:33:32;6.3;;;5.5;;
68319;SDS011;55168;51.120;17.024;2023-07-29T01:34:17;6.3;;;5.5;;
68319;SDS011;55168;51.120;17.024;2023-07-29T01:35:03;6.3;;;5.5;;
68319;SDS011;55168;51.120;17.024;2023-07-29T01:36:02;6.3;;;5.5;;
68319;SDS011;55168;51.120;17.024;2023-07-29T01:37:02;5.9;;;5.4;;
68319;SDS011;55168;51.120;17.024;2023-07-29T01:38:09;5.9;;;5.4;;
68319;SDS011;55168;51.120;17.024;2023-07-29T01:39:02;5.9;;;5.4;;
68319;SDS011;55168;51.120;17.024;2023-07-29T01:40:00;5.9;;;5.4;;
68319;SDS011;55168;51.120;17.024;2023-07-29T01:41:01;5.9;;;5.4;;
68319;SDS011;55168;51.120;17.024;2023-07-29T01:42:00;5.9;;;5.4;;
68319;SDS011;55168;51.120;17.024;2023-07-29T01:43:00;5.9;;;5.4;;
68319;SDS011;55168;51.120;17.024;2023-07-29T01:44:01;5.9;;;5.4;;
68319;SDS011;55168;51.120;17.024;2023-07-29T01:45:00;5.9;;;5.4;;
68319;SDS011;55168;51.120;17.024;2023-07-29T01:46:00;5.9;;;5.4;;
68319;SDS011;55168;51.120;17.024;2023-07-29T01:47:00;7.8;;;5.8;;
68319;SDS011;55168;51.120;17.024;2023-07-29T01:48:00;7.8;;;5.8;;
68319;SDS011;55168;51.120;17.024;2023-07-29T01:49:00;7.8;;;5.8;;
68319;SDS011;55168;51.120;17.024;2023-07-29T01:50:00;7.8;;;5.8;;
68319;SDS011;55168;51.120;17.024;2023-07-29T01:51:00;7.8;;;5.8;;
68319;SDS011;55168;51.120;17.024;2023-07-29T01:52:00;6.7;;;5.4;;
68319;SDS011;55168;51.120;17.024;2023-07-29T01:53:00;6.7;;;5.4;;
68319;SDS011;55168;51.120;17.024;2023-07-29T01:54:00;6.7;;;5.4;;
68319;SDS011;55168;51.120;17.024;2023-07-29T01:55:00;6.7;;;5.4;;
68319;SDS011;55168;51.120;17.024;2023-07-29T01:56:01;6.7;;;5.4;;
68319;SDS011;55168;51.120;17.024;2023-07-29T01:57:00;6.1;;;5.6;;
68319;SDS011;55168;51.120;17.024;2023-07-29T01:58:00;6.1;;;5.6;;
68319;SDS011;55168;51.120;17.024;2023-07-29T01:59:00;6.1;;;5.6;;
68319;SDS011;55168;51.120;17.024;2023-07-29T02:00:00;6.1;;;5.6;;
68319;SDS011;55168;51.120;17.024;2023-07-29T02:01:00;6.1;;;5.6;;
68319;SDS011;55168;51.120;17.024;2023-07-29T02:02:00;6.4;;;5.8;;
68319;SDS011;55168;51.120;17.024;2023-07-29T02:03:00;6.4;;;5.8;;
68319;SDS011;55168;51.120;17.024;2023-07-29T02:04:00;6.4;;;5.8;;
68319;SDS011;55168;51.120;17.024;2023-07-29T02:05:00;6.4;;;5.8;;
68319;SDS011;55168;51.120;17.024;2023-07-29T02:06:00;6.4;;;5.8;;
68319;SDS011;55168;51.120;17.024;2023-07-29T02:07:00;6.9;;;6.3;;
68319;SDS011;55168;51.120;17.024;2023-07-29T02:08:00;6.9;;;6.3;;
68319;SDS011;55168;51.120;17.024;2023-07-29T02:09:00;6.9;;;6.3;;
68319;SDS011;55168;51.120;17.024;2023-07-29T02:10:00;6.9;;;6.3;;
68319;SDS011;55168;51.120;17.024;2023-07-29T02:11:00;6.9;;;6.3;;
68319;SDS011;55168;51.120;17.024;2023-07-29T02:12:00;7.1;;;6.4;;
68319;SDS011;55168;51.120;17.024;2023-07-29T02:13:00;7.1;;;6.4;;
68319;SDS011;55168;51.120;17.024;2023-07-29T02:14:00;7.1;;;6.4;;
68319;SDS011;55168;51.120;17.024;2023-07-29T02:15:00;7.1;;;6.4;;
68319;SDS011;55168;51.120;17.024;2023-07-29T02:16:00;7.1;;;6.4;;
68319;SDS011;55168;51.120;17.024;2023-07-29T02:17:00;6.6;;;5.9;;
68319;SDS011;55168;51.120;17.024;2023-07-29T02:18:00;6.6;;;5.9;;
68319;SDS011;55168;51.120;17.024;2023-07-29T02:19:00;6.6;;;5.9;;
68319;SDS011;55168;51.120;17.024;2023-07-29T02:20:00;6.6;;;5.9;;
68319;SDS011;55168;51.120;17.024;2023-07-29T02:21:00;6.6;;;5.9;;
68319;SDS011;55168;51.120;17.024;2023-07-29T02:22:00;6.9;;;6.3;;
68319;SDS011;55168;51.120;17.024;2023-07-29T02:23:00;6.9;;;6.3;;
68319;SDS011;55168;51.120;17.024;2023-07-29T02:24:00;6.9;;;6.3;;
68319;SDS011;55168;51.120;17.024;2023-07-29T02:25:00;6.9;;;6.3;;
68319;SDS011;55168;51.120;17.024;2023-07-29T02:26:00;6.9;;;6.3;;
68319;SDS011;55168;51.120;17.024;2023-07-29T02:27:00;6.7;;;6.0;;
68319;SDS011;55168;51.120;17.024;2023-07-29T02:28:00;6.7;;;6.0;;
68319;SDS011;55168;51.120;17.024;2023-07-29T02:29:00;6.7;;;6.0;;
68319;SDS011;55168;51.120;17.024;2023-07-29T02:30:00;6.7;;;6.0;;
68319;SDS011;55168;51.120;17.024;2023-07-29T02:31:20;6.7;;;6.0;;
68319;SDS011;55168;51.120;17.024;2023-07-29T02:32:00;6.6;;;6.0;;
68319;SDS011;55168;51.120;17.024;2023-07-29T02:33:00;6.6;;;6.0;;
68319;SDS011;55168;51.120;17.024;2023-07-29T02:34:00;6.6;;;6.0;;
68319;SDS011;55168;51.120;17.024;2023-07-29T02:35:00;6.6;;;6.0;;
68319;SDS011;55168;51.120;17.024;2023-07-29T02:36:00;6.6;;;6.0;;
68319;SDS011;55168;51.120;17.024;2023-07-29T02:37:00;7.0;;;6.4;;
68319;SDS011;55168;51.120;17.024;2023-07-29T02:38:00;7.0;;;6.4;;
68319;SDS011;55168;51.120;17.024;2023-07-29T02:39:00;7.0;;;6.4;;
68319;SDS011;55168;51.120;17.024;2023-07-29T02:40:00;7.0;;;6.4;;
68319;SDS011;55168;51.120;17.024;2023-07-29T02:41:00;7.0;;;6.4;;
68319;SDS011;55168;51.120;17.024;2023-07-29T02:42:00;7.5;;;6.6;;
68319;SDS011;55168;51.120;17.024;2023-07-29T02:43:00;7.5;;;6.6;;
68319;SDS011;55168;51.120;17.024;2023-07-29T02:44:01;7.5;;;6.6;;
68319;SDS011;55168;51.120;17.024;2023-07-29T02:45:00;7.5;;;6.6;;
68319;SDS011;55168;51.120;17.024;2023-07-29T02:46:00;7.5;;;6.6;;
68319;SDS011;55168;51.120;17.024;2023-07-29T02:47:00;6.9;;;6.2;;
68319;SDS011;55168;51.120;17.024;2023-07-29T02:48:00;6.9;;;6.2;;
68319;SDS011;55168;51.120;17.024;2023-07-29T02:49:01;6.9;;;6.2;;
68319;SDS011;55168;51.120;17.024;2023-07-29T02:50:00;6.9;;;6.2;;
68319;SDS011;55168;51.120;17.024;2023-07-29T02:51:00;6.9;;;6.2;;
68319;SDS011;55168;51.120;17.024;2023-07-29T02:52:00;6.4;;;5.8;;
68319;SDS011;55168;51.120;17.024;2023-07-29T02:53:00;6.4;;;5.8;;
68319;SDS011;55168;51.120;17.024;2023-07-29T02:54:00;6.4;;;5.8;;
68319;SDS011;55168;51.120;17.024;2023-07-29T02:55:00;6.4;;;5.8;;
68319;SDS011;55168;51.120;17.024;2023-07-29T02:56:00;6.4;;;5.8;;
68319;SDS011;55168;51.120;17.024;2023-07-29T02:57:00;7.5;;;6.2;;
68319;SDS011;55168;51.120;17.024;2023-07-29T02:58:00;7.5;;;6.2;;
68319;SDS011;55168;51.120;17.024;2023-07-29T02:59:00;7.5;;;6.2;;
68319;SDS011;55168;51.120;17.024;2023-07-29T03:00:00;7.5;;;6.2;;
68319;SDS011;55168;51.120;17.024;2023-07-29T03:01:01;7.5;;;6.2;;
68319;SDS011;55168;51.120;17.024;2023-07-29T03:02:00;6.9;;;6.2;;
68319;SDS011;55168;51.120;17.024;2023-07-29T03:03:00;6.9;;;6.2;;
68319;SDS011;55168;51.120;17.024;2023-07-29T03:04:00;6.9;;;6.2;;
68319;SDS011;55168;51.120;17.024;2023-07-29T03:05:00;6.9;;;6.2;;
68319;SDS011;55168;51.120;17.024;2023-07-29T03:06:02;6.9;;;6.2;;
68319;SDS011;55168;51.120;17.024;2023-07-29T03:07:00;6.6;;;6.0;;
68319;SDS011;55168;51.120;17.024;2023-07-29T03:08:00;6.6;;;6.0;;
68319;SDS011;55168;51.120;17.024;2023-07-29T03:09:00;6.6;;;6.0;;
68319;SDS011;55168;51.120;17.024;2023-07-29T03:10:00;6.6;;;6.0;;
68319;SDS011;55168;51.120;17.024;2023-07-29T03:11:05;6.6;;;6.0;;
68319;SDS011;55168;51.120;17.024;2023-07-29T03:12:00;6.6;;;5.9;;
68319;SDS011;55168;51.120;17.024;2023-07-29T03:13:00;6.6;;;5.9;;
68319;SDS011;55168;51.120;17.024;2023-07-29T03:14:00;6.6;;;5.9;;
68319;SDS011;55168;51.120;17.024;2023-07-29T03:15:00;6.6;;;5.9;;
68319;SDS011;55168;51.120;17.024;2023-07-29T03:16:08;6.6;;;5.9;;
68319;SDS011;55168;51.120;17.024;2023-07-29T03:17:03;6.8;;;6.1;;
68319;SDS011;55168;51.120;17.024;2023-07-29T03:18:00;6.8;;;6.1;;
68319;SDS011;55168;51.120;17.024;2023-07-29T03:19:00;6.8;;;6.1;;
68319;SDS011;55168;51.120;17.024;2023-07-29T03:20:00;6.8;;;6.1;;
68319;SDS011;55168;51.120;17.024;2023-07-29T03:21:00;6.8;;;6.1;;
68319;SDS011;55168;51.120;17.024;2023-07-29T03:22:00;7.2;;;6.5;;
68319;SDS011;55168;51.120;17.024;2023-07-29T03:23:00;7.2;;;6.5;;
68319;SDS011;55168;51.120;17.024;2023-07-29T03:24:00;7.2;;;6.5;;
68319;SDS011;55168;51.120;17.024;2023-07-29T03:25:00;7.2;;;6.5;;
68319;SDS011;55168;51.120;17.024;2023-07-29T03:26:02;7.2;;;6.5;;
68319;SDS011;55168;51.120;17.024;2023-07-29T03:27:00;7.8;;;6.2;;
68319;SDS011;55168;51.120;17.024;2023-07-29T03:28:00;7.8;;;6.2;;
68319;SDS011;55168;51.120;17.024;2023-07-29T03:29:00;7.8;;;6.2;;
68319;SDS011;55168;51.120;17.024;2023-07-29T03:30:00;7.8;;;6.2;;
68319;SDS011;55168;51.120;17.024;2023-07-29T03:31:00;7.8;;;6.2;;
68319;SDS011;55168;51.120;17.024;2023-07-29T03:32:00;6.8;;;6.1;;
68319;SDS011;55168;51.120;17.024;2023-07-29T03:33:00;6.8;;;6.1;;
68319;SDS011;55168;51.120;17.024;2023-07-29T03:34:00;6.8;;;6.1;;
68319;SDS011;55168;51.120;17.024;2023-07-29T03:35:00;6.8;;;6.1;;
68319;SDS011;55168;51.120;17.024;2023-07-29T03:36:00;6.8;;;6.1;;
68319;SDS011;55168;51.120;17.024;2023-07-29T03:37:00;7.4;;;5.8;;
68319;SDS011;55168;51.120;17.024;2023-07-29T03:38:00;7.4;;;5.8;;
68319;SDS011;55168;51.120;17.024;2023-07-29T03:39:00;7.4;;;5.8;;
68319;SDS011;55168;51.120;17.024;2023-07-29T03:40:00;7.4;;;5.8;;
68319;SDS011;55168;51.120;17.024;2023-07-29T03:41:00;7.4;;;5.8;;
68319;SDS011;55168;51.120;17.024;2023-07-29T03:42:00;6.5;;;5.7;;
68319;SDS011;55168;51.120;17.024;2023-07-29T03:43:00;6.5;;;5.7;;
68319;SDS011;55168;51.120;17.024;2023-07-29T03:44:00;6.5;;;5.7;;
68319;SDS011;55168;51.120;17.024;2023-07-29T03:45:00;6.5;;;5.7;;
68319;SDS011;55168;51.120;17.024;2023-07-29T03:46:00;6.5;;;5.7;;
68319;SDS011;55168;51.120;17.024;2023-07-29T03:47:00;6.5;;;5.8;;
68319;SDS011;55168;51.120;17.024;2023-07-29T03:48:00;6.5;;;5.8;;
68319;SDS011;55168;51.120;17.024;2023-07-29T03:49:00;6.5;;;5.8;;
68319;SDS011;55168;51.120;17.024;2023-07-29T03:50:00;6.5;;;5.8;;
68319;SDS011;55168;51.120;17.024;2023-07-29T03:51:00;6.5;;;5.8;;
68319;SDS011;55168;51.120;17.024;2023-07-29T03:52:00;6.2;;;5.6;;
68319;SDS011;55168;51.120;17.024;2023-07-29T03:53:00;6.2;;;5.6;;
68319;SDS011;55168;51.120;17.024;2023-07-29T03:54:00;6.2;;;5.6;;
68319;SDS011;55168;51.120;17.024;2023-07-29T03:55:00;6.2;;;5.6;;
68319;SDS011;55168;51.120;17.024;2023-07-29T03:56:00;6.2;;;5.6;;
68319;SDS011;55168;51.120;17.024;2023-07-29T03:57:00;5.8;;;5.3;;
68319;SDS011;55168;51.120;17.024;2023-07-29T03:58:00;5.8;;;5.3;;
68319;SDS011;55168;51.120;17.024;2023-07-29T03:59:04;5.8;;;5.3;;
68319;SDS011;55168;51.120;17.024;2023-07-29T04:00:00;5.8;;;5.3;;
68319;SDS011;55168;51.120;17.024;2023-07-29T04:01:00;5.8;;;5.3;;
68319;SDS011;55168;51.120;17.024;2023-07-29T04:02:00;5.6;;;5.1;;
68319;SDS011;55168;51.120;17.024;2023-07-29T04:03:00;5.6;;;5.1;;
68319;SDS011;55168;51.120;17.024;2023-07-29T04:04:00;5.6;;;5.1;;
68319;SDS011;55168;51.120;17.024;2023-07-29T04:05:00;5.6;;;5.1;;
68319;SDS011;55168;51.120;17.024;2023-07-29T04:06:00;5.6;;;5.1;;
68319;SDS011;55168;51.120;17.024;2023-07-29T04:07:00;6.0;;;5.2;;
68319;SDS011;55168;51.120;17.024;2023-07-29T04:08:00;6.0;;;5.2;;
68319;SDS011;55168;51.120;17.024;2023-07-29T04:09:00;6.0;;;5.2;;
68319;SDS011;55168;51.120;17.024;2023-07-29T04:10:00;6.0;;;5.2;;
68319;SDS011;55168;51.120;17.024;2023-07-29T04:11:00;6.0;;;5.2;;
68319;SDS011;55168;51.120;17.024;2023-07-29T04:12:00;5.4;;;4.9;;
68319;SDS011;55168;51.120;17.024;2023-07-29T04:13:00;5.4;;;4.9;;
68319;SDS011;55168;51.120;17.024;2023-07-29T04:14:00;5.4;;;4.9;;
68319;SDS011;55168;51.120;17.024;2023-07-29T04:15:00;5.4;;;4.9;;
68319;SDS011;55168;51.120;17.024;2023-07-29T04:16:00;5.4;;;4.9;;
68319;SDS011;55168;51.120;17.024;2023-07-29T04:17:00;5.3;;;4.5;;
68319;SDS011;55168;51.120;17.024;2023-07-29T04:18:00;5.3;;;4.5;;
68319;SDS011;55168;51.120;17.024;2023-07-29T04:19:00;5.3;;;4.5;;
68319;SDS011;55168;51.120;17.024;2023-07-29T04:20:00;5.3;;;4.5;;
68319;SDS011;55168;51.120;17.024;2023-07-29T04:21:00;5.3;;;4.5;;
68319;SDS011;55168;51.120;17.024;2023-07-29T04:22:00;4.9;;;4.4;;
68319;SDS011;55168;51.120;17.024;2023-07-29T04:23:00;4.9;;;4.4;;
68319;SDS011;55168;51.120;17.024;2023-07-29T04:24:00;4.9;;;4.4;;
68319;SDS011;55168;51.120;17.024;2023-07-29T04:25:00;4.9;;;4.4;;
68319;SDS011;55168;51.120;17.024;2023-07-29T04:26:00;4.9;;;4.4;;
68319;SDS011;55168;51.120;17.024;2023-07-29T04:27:00;5.2;;;4.3;;
68319;SDS011;55168;51.120;17.024;2023-07-29T04:28:00;5.2;;;4.3;;
68319;SDS011;55168;51.120;17.024;2023-07-29T04:29:00;5.2;;;4.3;;
68319;SDS011;55168;51.120;17.024;2023-07-29T04:30:00;5.2;;;4.3;;
68319;SDS011;55168;51.120;17.024;2023-07-29T04:31:00;5.2;;;4.3;;
68319;SDS011;55168;51.120;17.024;2023-07-29T04:32:00;5.5;;;4.5;;
68319;SDS011;55168;51.120;17.024;2023-07-29T04:33:00;5.5;;;4.5;;
68319;SDS011;55168;51.120;17.024;2023-07-29T04:34:00;5.5;;;4.5;;
68319;SDS011;55168;51.120;17.024;2023-07-29T04:35:00;5.5;;;4.5;;
68319;SDS011;55168;51.120;17.024;2023-07-29T04:36:00;5.5;;;4.5;;
68319;SDS011;55168;51.120;17.024;2023-07-29T04:37:00;5.4;;;4.3;;
68319;SDS011;55168;51.120;17.024;2023-07-29T04:38:00;5.4;;;4.3;;
68319;SDS011;55168;51.120;17.024;2023-07-29T04:39:00;5.4;;;4.3;;
68319;SDS011;55168;51.120;17.024;2023-07-29T04:40:00;5.4;;;4.3;;
68319;SDS011;55168;51.120;17.024;2023-07-29T04:41:00;5.4;;;4.3;;
68319;SDS011;55168;51.120;17.024;2023-07-29T04:42:00;6.1;;;4.5;;
68319;SDS011;55168;51.120;17.024;2023-07-29T04:43:01;6.1;;;4.5;;
68319;SDS011;55168;51.120;17.024;2023-07-29T04:44:00;6.1;;;4.5;;
68319;SDS011;55168;51.120;17.024;2023-07-29T04:45:00;6.1;;;4.5;;
68319;SDS011;55168;51.120;17.024;2023-07-29T04:46:00;6.1;;;4.5;;
68319;SDS011;55168;51.120;17.024;2023-07-29T04:47:00;5.4;;;4.4;;
68319;SDS011;55168;51.120;17.024;2023-07-29T04:48:00;5.4;;;4.4;;
68319;SDS011;55168;51.120;17.024;2023-07-29T04:49:00;5.4;;;4.4;;
68319;SDS011;55168;51.120;17.024;2023-07-29T04:50:00;5.4;;;4.4;;
68319;SDS011;55168;51.120;17.024;2023-07-29T04:51:00;5.4;;;4.4;;
68319;SDS011;55168;51.120;17.024;2023-07-29T04:52:00;5.3;;;4.7;;
68319;SDS011;55168;51.120;17.024;2023-07-29T04:53:00;5.3;;;4.7;;
68319;SDS011;55168;51.120;17.024;2023-07-29T04:54:00;5.3;;;4.7;;
68319;SDS011;55168;51.120;17.024;2023-07-29T04:55:00;5.3;;;4.7;;
68319;SDS011;55168;51.120;17.024;2023-07-29T04:56:00;5.3;;;4.7;;
68319;SDS011;55168;51.120;17.024;2023-07-29T04:57:00;5.1;;;4.3;;
68319;SDS011;55168;51.120;17.024;2023-07-29T04:58:00;5.1;;;4.3;;
68319;SDS011;55168;51.120;17.024;2023-07-29T04:59:00;5.1;;;4.3;;
68319;SDS011;55168;51.120;17.024;2023-07-29T05:00:00;5.1;;;4.3;;
68319;SDS011;55168;51.120;17.024;2023-07-29T05:01:00;5.1;;;4.3;;
68319;SDS011;55168;51.120;17.024;2023-07-29T05:02:00;5.5;;;4.2;;
68319;SDS011;55168;51.120;17.024;2023-07-29T05:03:00;5.5;;;4.2;;
68319;SDS011;55168;51.120;17.024;2023-07-29T05:04:00;5.5;;;4.2;;
68319;SDS011;55168;51.120;17.024;2023-07-29T05:05:00;5.5;;;4.2;;
68319;SDS011;55168;51.120;17.024;2023-07-29T05:06:00;5.5;;;4.2;;
68319;SDS011;55168;51.120;17.024;2023-07-29T05:07:00;6.0;;;4.1;;
68319;SDS011;55168;51.120;17.024;2023-07-29T05:08:00;6.0;;;4.1;;
68319;SDS011;55168;51.120;17.024;2023-07-29T05:09:12;6.0;;;4.1;;
68319;SDS011;55168;51.120;17.024;2023-07-29T05:10:00;6.0;;;4.1;;
68319;SDS011;55168;51.120;17.024;2023-07-29T05:11:00;6.0;;;4.1;;
68319;SDS011;55168;51.120;17.024;2023-07-29T05:12:00;6.2;;;4.3;;
68319;SDS011;55168;51.120;17.024;2023-07-29T05:13:00;6.2;;;4.3;;
68319;SDS011;55168;51.120;17.024;2023-07-29T05:14:00;6.2;;;4.3;;
68319;SDS011;55168;51.120;17.024;2023-07-29T05:15:00;6.2;;;4.3;;
68319;SDS011;55168;51.120;17.024;2023-07-29T05:16:00;6.2;;;4.3;;
68319;SDS011;55168;51.120;17.024;2023-07-29T05:17:00;4.1;;;3.7;;
68319;SDS011;55168;51.120;17.024;2023-07-29T05:18:00;4.1;;;3.7;;
68319;SDS011;55168;51.120;17.024;2023-07-29T05:19:00;4.1;;;3.7;;
68319;SDS011;55168;51.120;17.024;2023-07-29T05:20:00;4.1;;;3.7;;
68319;SDS011;55168;51.120;17.024;2023-07-29T05:21:00;4.1;;;3.7;;
68319;SDS011;55168;51.120;17.024;2023-07-29T05:22:00;4.9;;;4.0;;
68319;SDS011;55168;51.120;17.024;2023-07-29T05:23:00;4.9;;;4.0;;
68319;SDS011;55168;51.120;17.024;2023-07-29T05:24:00;4.9;;;4.0;;
68319;SDS011;55168;51.120;17.024;2023-07-29T05:25:00;4.9;;;4.0;;
68319;SDS011;55168;51.120;17.024;2023-07-29T05:26:00;4.9;;;4.0;;
68319;SDS011;55168;51.120;17.024;2023-07-29T05:27:00;4.4;;;3.8;;
68319;SDS011;55168;51.120;17.024;2023-07-29T05:28:01;4.4;;;3.8;;
68319;SDS011;55168;51.120;17.024;2023-07-29T05:29:00;4.4;;;3.8;;
68319;SDS011;55168;51.120;17.024;2023-07-29T05:30:00;4.4;;;3.8;;
68319;SDS011;55168;51.120;17.024;2023-07-29T05:31:01;4.4;;;3.8;;
68319;SDS011;55168;51.120;17.024;2023-07-29T05:32:00;3.9;;;3.5;;
68319;SDS011;55168;51.120;17.024;2023-07-29T05:33:00;3.9;;;3.5;;
68319;SDS011;55168;51.120;17.024;2023-07-29T05:34:00;3.9;;;3.5;;
68319;SDS011;55168;51.120;17.024;2023-07-29T05:35:00;3.9;;;3.5;;
68319;SDS011;55168;51.120;17.024;2023-07-29T05:36:00;3.9;;;3.5;;
68319;SDS011;55168;51.120;17.024;2023-07-29T05:37:00;3.7;;;3.4;;
68319;SDS011;55168;51.120;17.024;2023-07-29T05:38:00;3.7;;;3.4;;
68319;SDS011;55168;51.120;17.024;2023-07-29T05:39:00;3.7;;;3.4;;
68319;SDS011;55168;51.120;17.024;2023-07-29T05:40:00;3.7;;;3.4;;
68319;SDS011;55168;51.120;17.024;2023-07-29T05:41:00;3.7;;;3.4;;
68319;SDS011;55168;51.120;17.024;2023-07-29T05:42:00;3.6;;;3.2;;
68319;SDS011;55168;51.120;17.024;2023-07-29T05:43:00;3.6;;;3.2;;
68319;SDS011;55168;51.120;17.024;2023-07-29T05:44:00;3.6;;;3.2;;
68319;SDS011;55168;51.120;17.024;2023-07-29T05:45:00;3.6;;;3.2;;
68319;SDS011;55168;51.120;17.024;2023-07-29T05:46:00;3.6;;;3.2;;
68319;SDS011;55168;51.120;17.024;2023-07-29T05:47:00;5.2;;;3.7;;
68319;SDS011;55168;51.120;17.024;2023-07-29T05:48:00;5.2;;;3.7;;
68319;SDS011;55168;51.120;17.024;2023-07-29T05:49:00;5.2;;;3.7;;
68319;SDS011;55168;51.120;17.024;2023-07-29T05:50:00;5.2;;;3.7;;
68319;SDS011;55168;51.120;17.024;2023-07-29T05:51:00;5.2;;;3.7;;
68319;SDS011;55168;51.120;17.024;2023-07-29T05:52:00;4.9;;;3.5;;
68319;SDS011;55168;51.120;17.024;2023-07-29T05:53:00;4.9;;;3.5;;
68319;SDS011;55168;51.120;17.024;2023-07-29T05:54:00;4.9;;;3.5;;
68319;SDS011;55168;51.120;17.024;2023-07-29T05:55:00;4.9;;;3.5;;
68319;SDS011;55168;51.120;17.024;2023-07-29T05:56:00;4.9;;;3.5;;
68319;SDS011;55168;51.120;17.024;2023-07-29T05:57:00;3.6;;;3.2;;
68319;SDS011;55168;51.120;17.024;2023-07-29T05:58:00;3.6;;;3.2;;
68319;SDS011;55168;51.120;17.024;2023-07-29T05:59:00;3.6;;;3.2;;
68319;SDS011;55168;51.120;17.024;2023-07-29T06:00:00;3.6;;;3.2;;
68319;SDS011;55168;51.120;17.024;2023-07-29T06:01:00;3.6;;;3.2;;
68319;SDS011;55168;51.120;17.024;2023-07-29T06:02:00;4.3;;;3.5;;
68319;SDS011;55168;51.120;17.024;2023-07-29T06:03:00;4.3;;;3.5;;
68319;SDS011;55168;51.120;17.024;2023-07-29T06:04:00;4.3;;;3.5;;
68319;SDS011;55168;51.120;17.024;2023-07-29T06:05:00;4.3;;;3.5;;
68319;SDS011;55168;51.120;17.024;2023-07-29T06:06:00;4.3;;;3.5;;